Terminal Aerodrome Forecast
Issued by NWS

Home | Current Version | Previous Version | Text Only | Print | Product List | Glossary On
Versions: 1 2 3 4 5 6 7 8 9 10 11 12 13 14 15 16 17 18
000
FTUS44 KBMX 281700
TAFEET
TAF
KEET 281737Z 2818/0118 11006KT P6SM BKN130
     FM010000 08006KT P6SM BKN035
     FM010300 09006KT P6SM BKN025
     FM010600 09005KT P6SM OVC015
     FM010900 07005KT 4SM -DZ BR OVC007=

USA.gov is the U.S. government's official web portal to all federal, state and local government web resources and services.